Time;durP1;ratioP1;P1;durP2;ratioP2;P2;SDS_P1;SDS_P2;PMS_P1;PMS_P2;Temp;Humidity;BMP_temperature;BMP_pressure;BME280_temperature;BME280_humidity;BME280_pressure;Samples;Min_cycle;Max_cycle;Signal;HPM_P1;HPM_P2
2021/04/25 00:00:53;;;;;;;9.53;5.23;;;;;;;3.76;53.67;99895.92;469727;1172;115660;-59
2021/04/25 00:10:58;;;;;;;7.10;5.40;;;;;;;3.77;53.26;99897.63;472646;1171;10001373;-59
2021/04/25 00:21:03;;;;;;;9.20;5.10;;;;;;;3.85;52.82;99887.81;469511;1172;116285;-60
2021/04/25 00:31:06;;;;;;;8.70;5.50;;;;;;;3.83;54.08;99883.59;470003;1172;115887;-59
2021/04/25 00:41:11;;;;;;;12.40;7.53;;;;;;;3.82;54.67;99876.70;475092;1171;115816;-59
2021/04/25 00:51:15;;;;;;;11.50;5.90;;;;;;;3.74;55.56;99869.98;468822;1171;116101;-53
2021/04/25 01:01:19;;;;;;;11.13;6.45;;;;;;;3.63;55.27;99862.52;469663;1171;115160;-55
2021/04/25 01:11:23;;;;;;;12.60;6.17;;;;;;;3.40;55.48;99863.23;470634;1171;115571;-53
2021/04/25 01:21:27;;;;;;;10.63;6.50;;;;;;;3.28;56.49;99856.64;469240;1170;115926;-52
2021/04/25 01:31:31;;;;;;;10.80;5.70;;;;;;;3.14;56.87;99859.66;471796;1171;115432;-53
2021/04/25 01:41:35;;;;;;;11.93;6.47;;;;;;;3.01;57.67;99859.16;469361;1170;116372;-54
2021/04/25 01:51:39;;;;;;;10.67;7.10;;;;;;;2.93;57.99;99845.55;471534;1171;115311;-55
2021/04/25 02:01:43;;;;;;;8.90;5.70;;;;;;;2.86;58.25;99854.41;470442;1171;115806;-54
2021/04/25 02:11:47;;;;;;;9.60;6.30;;;;;;;2.78;58.65;99834.72;468965;1170;116778;-55
2021/04/25 02:21:51;;;;;;;14.60;7.45;;;;;;;2.76;58.55;99840.83;470532;1171;115057;-53
2021/04/25 02:31:55;;;;;;;16.43;9.13;;;;;;;2.71;59.32;99833.17;468801;1171;116004;-51
2021/04/25 02:41:59;;;;;;;15.23;7.15;;;;;;;2.73;58.68;99833.14;469294;1171;115361;-53
2021/04/25 02:52:03;;;;;;;14.20;8.75;;;;;;;2.69;59.45;99839.31;469513;1171;117049;-54
2021/04/25 03:02:07;;;;;;;12.80;7.33;;;;;;;2.62;59.72;99833.45;468872;1171;119066;-49
2021/04/25 03:12:11;;;;;;;12.75;7.00;;;;;;;2.62;59.33;99830.86;474247;1171;116364;-56
2021/04/25 03:22:14;;;;;;;14.57;7.60;;;;;;;2.59;59.99;99823.14;475722;1171;116679;-53
2021/04/25 03:32:18;;;;;;;10.00;6.60;;;;;;;2.60;59.96;99830.89;472407;1170;116123;-52
2021/04/25 03:42:22;;;;;;;11.10;5.60;;;;;;;2.64;59.38;99836.84;480099;1171;116158;-55
2021/04/25 03:52:26;;;;;;;9.23;4.63;;;;;;;2.73;57.72;99831.41;484987;1171;115700;-56
2021/04/25 04:02:30;;;;;;;7.33;4.30;;;;;;;2.80;56.64;99832.92;471365;1171;116062;-57
2021/04/25 04:12:34;;;;;;;10.07;4.73;;;;;;;2.85;55.96;99826.78;484788;1171;116860;-54
2021/04/25 04:22:38;;;;;;;7.00;5.30;;;;;;;2.92;56.09;99831.74;479507;1171;116039;-55
2021/04/25 04:32:42;;;;;;;7.20;3.93;;;;;;;2.98;55.37;99835.04;473420;1171;117369;-56
2021/04/25 04:42:46;;;;;;;7.73;4.20;;;;;;;3.16;55.70;99833.65;473700;1171;116634;-51
2021/04/25 04:52:50;;;;;;;6.17;3.80;;;;;;;4.17;54.20;99833.95;470263;1171;116205;-55
2021/04/25 05:02:54;;;;;;;8.55;5.15;;;;;;;5.40;53.28;99839.15;474211;1170;116088;-55
2021/04/25 05:12:57;;;;;;;8.10;3.95;;;;;;;5.80;51.06;99831.52;474519;1171;115381;-52
2021/04/25 05:23:02;;;;;;;7.00;4.50;;;;;;;11.84;46.74;99829.76;469767;1171;116257;-54
2021/04/25 05:33:06;;;;;;;8.30;5.33;;;;;;;10.57;44.83;99820.11;482297;1170;116242;-56
2021/04/25 05:43:10;;;;;;;6.15;4.30;;;;;;;8.83;43.63;99822.83;472285;1170;116525;-54
2021/04/25 05:53:14;;;;;;;7.23;4.47;;;;;;;9.12;43.78;99828.27;473808;1171;115823;-56
2021/04/25 06:03:18;;;;;;;5.35;3.95;;;;;;;8.97;41.09;99824.69;476962;1171;115555;-55
2021/04/25 06:13:22;;;;;;;5.53;3.37;;;;;;;9.06;41.75;99826.82;473658;1171;115949;-52
2021/04/25 06:23:26;;;;;;;5.03;3.80;;;;;;;20.30;36.36;99810.49;468367;1171;116197;-56
2021/04/25 06:33:29;;;;;;;5.03;4.00;;;;;;;24.63;28.55;99801.41;469798;1170;116259;-57
2021/04/25 06:43:33;;;;;;;7.07;3.37;;;;;;;30.29;25.42;99797.28;468629;1171;116589;-58
2021/04/25 06:53:37;;;;;;;3.90;3.20;;;;;;;28.27;20.56;99800.24;469773;1171;116335;-58
2021/04/25 07:03:41;;;;;;;4.03;3.23;;;;;;;29.03;18.86;99798.80;469025;1171;116695;-56
2021/04/25 07:13:44;;;;;;;;;;;;;;;27.97;18.64;99802.30;469135;1171;115631;-56
2021/04/25 07:23:48;;;;;;;3.88;2.35;;;;;;;30.45;18.09;99803.99;469437;1171;102206;-58
2021/04/25 07:33:51;;;;;;;5.93;3.08;;;;;;;29.67;17.93;99802.59;469029;1171;116116;-57
2021/04/25 07:43:57;;;;;;;3.00;2.70;;;;;;;30.17;15.49;99801.78;469198;1170;116268;-56
2021/04/25 07:54:00;;;;;;;4.87;3.60;;;;;;;26.65;17.91;99810.63;469024;1171;116320;-56
2021/04/25 08:04:05;;;;;;;3.05;2.80;;;;;;;29.77;15.59;99805.63;470846;1171;116876;-57
2021/04/25 08:14:08;;;;;;;5.97;3.60;;;;;;;30.16;15.28;99811.77;469866;1171;116512;-56
2021/04/25 08:24:12;;;;;;;4.27;2.77;;;;;;;19.50;18.33;99801.48;469867;1171;116156;-58
2021/04/25 08:34:16;;;;;;;3.13;2.50;;;;;;;17.12;19.44;99810.08;469825;1172;115751;-57
2021/04/25 08:44:22;;;;;;;4.10;2.60;;;;;;;15.38;20.69;99804.20;468926;1170;115822;-55
2021/04/25 08:54:27;;;;;;;4.10;2.07;;;;;;;13.05;21.95;99807.61;474148;1170;116035;-57
2021/04/25 09:04:31;;;;;;;2.93;2.33;;;;;;;12.53;23.15;99810.28;468610;1171;116036;-54
2021/04/25 09:14:39;;;;;;;3.80;1.70;;;;;;;12.74;23.06;99803.53;468851;1171;115750;-58
2021/04/25 09:24:43;;;;;;;2.17;1.77;;;;;;;12.97;23.41;99793.17;469346;1171;116286;-56
2021/04/25 09:34:47;;;;;;;4.40;3.25;;;;;;;11.80;24.14;99792.28;472547;1171;116831;-60
2021/04/25 09:44:51;;;;;;;2.50;1.60;;;;;;;11.54;24.62;99801.87;465874;1171;10001621;-60
2021/04/25 09:55:14;;;;;;;3.28;1.63;;;;;;;11.69;24.73;99786.88;470093;1171;116324;-59
2021/04/25 10:05:23;;;;;;;0.95;0.85;;;;;;;10.49;24.24;99797.78;470467;1170;117198;-57
2021/04/25 10:15:27;;;;;;;2.00;1.77;;;;;;;10.34;24.12;99801.31;469390;1170;116690;-56
2021/04/25 10:25:35;;;;;;;0.95;0.70;;;;;;;10.28;24.23;99797.27;469853;1170;115739;-57
2021/04/25 10:35:53;;;;;;;0.93;0.63;;;;;;;9.66;23.67;99811.34;468929;1171;115780;-59
2021/04/25 10:45:58;;;;;;;1.43;0.90;;;;;;;10.30;23.46;99802.44;470181;1170;116180;-59
2021/04/25 10:56:39;;;;;;;2.60;0.73;;;;;;;10.53;23.02;99806.33;470105;1171;115901;-58
2021/04/25 11:06:43;;;;;;;1.17;1.07;;;;;;;10.66;23.82;99795.93;470213;1170;115717;-60
2021/04/25 11:16:49;;;;;;;1.20;0.60;;;;;;;11.46;23.07;99792.68;470129;1170;115381;-60
2021/04/25 11:26:55;;;;;;;0.60;0.60;;;;;;;11.19;23.00;99793.52;469572;1167;171123;-59
2021/04/25 11:37:01;;;;;;;1.07;0.87;;;;;;;10.96;22.99;99796.75;470309;1171;115820;-59
2021/04/25 11:47:08;;;;;;;2.50;1.00;;;;;;;10.91;23.35;99804.92;470043;1171;117260;-58
2021/04/25 11:57:14;;;;;;;0.93;0.83;;;;;;;10.88;23.71;99794.61;469169;1171;115932;-60
2021/04/25 12:07:36;;;;;;;1.35;0.70;;;;;;;10.54;23.61;99800.13;469889;1171;115613;-59
2021/04/25 12:17:52;;;;;;;3.27;0.83;;;;;;;10.30;24.25;99811.14;469959;1171;116667;-59
2021/04/25 12:27:57;;;;;;;3.47;0.90;;;;;;;9.75;28.64;99842.27;469535;1171;116078;-59
2021/04/25 12:38:13;;;;;;;0.83;0.60;;;;;;;9.22;29.96;99855.66;470201;1168;115915;-59
2021/04/25 12:48:30;;;;;;;1.70;1.03;;;;;;;8.92;31.75;99853.74;470224;1171;116434;-60
2021/04/25 12:58:33;;;;;;;2.30;1.00;;;;;;;9.32;31.53;99861.23;470636;1171;115771;-60
2021/04/25 13:08:38;;;;;;;1.00;0.70;;;;;;;9.46;31.85;99857.86;469448;1171;117087;-61
2021/04/25 13:18:42;;;;;;;4.47;1.10;;;;;;;9.55;32.09;99866.16;470518;1171;115849;-59
2021/04/25 13:28:45;;;;;;;2.97;1.17;;;;;;;9.47;31.32;99863.96;470760;1171;117881;-59
2021/04/25 13:38:50;;;;;;;1.90;1.10;;;;;;;9.13;31.26;99857.94;469662;1171;115965;-59
2021/04/25 13:48:54;;;;;;;1.15;0.50;;;;;;;8.65;32.34;99858.65;470242;1171;116483;-59
2021/04/25 13:58:58;;;;;;;1.17;0.50;;;;;;;8.68;32.27;99861.95;462303;1171;10003039;-59
2021/04/25 14:09:04;;;;;;;3.50;0.80;;;;;;;8.12;31.79;99854.26;469350;1171;116167;-60
2021/04/25 14:19:08;;;;;;;1.70;0.50;;;;;;;8.33;31.53;99848.88;469752;1171;116532;-58
2021/04/25 14:29:12;;;;;;;6.60;1.75;;;;;;;8.33;35.03;99866.36;470271;1171;115685;-59
2021/04/25 14:39:17;;;;;;;1.63;0.90;;;;;;;7.81;37.87;99865.38;469714;1171;115912;-60
2021/04/25 14:49:21;;;;;;;4.20;1.50;;;;;;;7.00;37.63;99869.09;470112;1171;115663;-60
2021/04/25 14:59:25;;;;;;;0.53;0.50;;;;;;;6.32;38.88;99896.34;469122;1171;115597;-59
2021/04/25 15:09:29;;;;;;;2.17;1.00;;;;;;;6.52;38.82;99884.20;470611;1171;115577;-59
2021/04/25 15:19:33;;;;;;;1.10;0.80;;;;;;;6.79;38.00;99858.67;470029;1171;116081;-59
2021/04/25 15:29:37;;;;;;;1.80;0.90;;;;;;;6.80;36.87;99847.32;463513;1171;10001675;-60
2021/04/25 15:39:41;;;;;;;1.23;0.80;;;;;;;6.83;36.39;99843.73;470071;1171;115686;-59
2021/04/25 15:49:47;;;;;;;2.03;1.83;;;;;;;6.68;36.58;99834.81;469973;1171;115322;-59
2021/04/25 15:59:51;;;;;;;2.00;1.00;;;;;;;6.69;35.98;99829.54;469125;1171;115231;-60
2021/04/25 16:09:54;;;;;;;2.90;1.30;;;;;;;6.71;36.11;99835.53;470067;1171;115561;-60
2021/04/25 16:19:58;;;;;;;0.60;0.50;;;;;;;6.76;35.45;99839.72;470112;1171;115414;-60
2021/04/25 16:30:02;;;;;;;1.17;0.50;;;;;;;6.80;35.76;99836.88;468851;1171;115403;-59
2021/04/25 16:40:09;;;;;;;1.10;0.90;;;;;;;6.66;36.96;99866.22;469996;1171;116128;-62
2021/04/25 16:50:15;;;;;;;4.35;1.30;;;;;;;5.45;41.46;99869.31;469995;1171;115238;-59
2021/04/25 17:00:22;;;;;;;2.13;1.70;;;;;;;5.04;42.72;99890.79;469786;1164;115798;-59
2021/04/25 17:10:26;;;;;;;4.90;1.75;;;;;;;5.23;42.41;99881.45;470108;1171;115301;-58
2021/04/25 17:20:30;;;;;;;1.40;0.90;;;;;;;5.28;41.80;99882.11;468693;1171;117151;-59
2021/04/25 17:30:35;;;;;;;1.53;0.85;;;;;;;4.94;42.62;99886.81;469895;1171;115422;-58
2021/04/25 17:40:40;;;;;;;1.43;0.87;;;;;;;4.54;42.96;99889.06;469682;1171;115591;-58
2021/04/25 17:50:44;;;;;;;4.00;1.85;;;;;;;4.14;43.78;99892.98;469457;1171;115910;-57
2021/04/25 18:00:48;;;;;;;3.33;1.50;;;;;;;3.69;45.04;99903.02;470452;1171;115613;-58
2021/04/25 18:10:52;;;;;;;4.30;1.93;;;;;;;3.31;45.92;99910.22;470079;1171;116260;-56
2021/04/25 18:20:58;;;;;;;28.70;11.25;;;;;;;2.88;47.51;99917.47;469208;1171;115219;-58
2021/04/25 18:31:02;;;;;;;40.20;14.53;;;;;;;2.48;48.35;99927.13;470540;1171;116882;-57
2021/04/25 18:41:06;;;;;;;31.03;11.03;;;;;;;2.16;49.63;99928.77;469590;1171;117587;-58
2021/04/25 18:51:11;;;;;;;16.33;7.13;;;;;;;1.88;50.25;99927.67;469713;1171;115706;-57
2021/04/25 19:01:18;;;;;;;33.25;12.50;;;;;;;1.61;51.52;99929.13;470013;1163;116209;-57
2021/04/25 19:11:22;;;;;;;69.40;24.77;;;;;;;1.43;51.38;99922.61;470190;1171;115880;-57
2021/04/25 19:21:26;;;;;;;63.60;23.50;;;;;;;1.31;53.02;99921.15;469285;1171;115959;-57
2021/04/25 19:31:31;;;;;;;40.35;14.95;;;;;;;1.10;53.00;99925.86;470277;1171;115957;-57
2021/04/25 19:41:35;;;;;;;39.10;12.20;;;;;;;0.99;53.83;99928.67;469862;1171;115971;-56
2021/04/25 19:51:39;;;;;;;95.58;36.78;;;;;;;1.07;54.45;99929.36;470058;1165;116097;-56
2021/04/25 20:01:43;;;;;;;76.60;29.37;;;;;;;1.08;54.90;99928.47;470176;1171;115769;-56
2021/04/25 20:11:47;;;;;;;51.00;21.10;;;;;;;0.94;54.66;99921.00;469303;1171;115775;-60
2021/04/25 20:21:51;;;;;;;60.50;28.60;;;;;;;0.80;55.49;99915.21;469998;1171;116054;-59
2021/04/25 20:32:00;;;;;;;60.27;31.00;;;;;;;0.72;55.67;99924.86;470339;1167;116058;-59
2021/04/25 20:42:05;;;;;;;64.00;31.65;;;;;;;0.67;55.99;99923.19;469943;1171;116237;-58
2021/04/25 20:52:09;;;;;;;49.17;26.00;;;;;;;0.59;55.98;99917.33;470865;1170;115778;-59
2021/04/25 21:02:12;;;;;;;84.20;37.30;;;;;;;0.71;56.93;99911.07;470349;1171;116202;-62
2021/04/25 21:12:16;;;;;;;63.33;30.10;;;;;;;1.04;56.67;99913.04;469740;1171;115933;-59
2021/04/25 21:22:20;;;;;;;39.33;20.00;;;;;;;1.04;55.68;99907.87;470068;1171;118543;-57
2021/04/25 21:32:25;;;;;;;59.75;32.35;;;;;;;0.93;57.00;99892.57;470810;1171;116160;-59
2021/04/25 21:42:29;;;;;;;75.15;43.90;;;;;;;0.81;57.10;99893.67;469723;1171;115810;-59
2021/04/25 21:52:33;;;;;;;85.13;46.73;;;;;;;0.84;57.69;99894.45;470590;1171;116044;-60
2021/04/25 22:02:37;;;;;;;86.03;47.13;;;;;;;0.88;57.79;99892.66;470283;1170;116599;-58
2021/04/25 22:12:41;;;;;;;91.17;51.97;;;;;;;0.81;58.06;99888.51;470312;1172;116435;-58
2021/04/25 22:22:45;;;;;;;87.93;50.03;;;;;;;0.53;58.38;99871.78;462633;1172;10001346;-58
2021/04/25 22:32:49;;;;;;;83.97;49.17;;;;;;;0.32;58.64;99870.41;477314;1170;116639;-55
2021/04/25 22:42:55;;;;;;;89.10;48.95;;;;;;;0.07;59.33;99863.08;469204;1171;116222;-52
2021/04/25 22:52:59;;;;;;;96.90;53.45;;;;;;;-0.27;60.38;99858.44;469309;1171;115961;-54
2021/04/25 23:03:06;;;;;;;124.70;63.90;;;;;;;-0.61;60.70;99840.88;469184;1171;116790;-54
2021/04/25 23:13:09;;;;;;;138.17;67.73;;;;;;;-0.91;61.26;99846.42;469424;1171;116484;-53
2021/04/25 23:23:13;;;;;;;122.60;57.70;;;;;;;-1.19;62.03;99853.64;470512;1170;116564;-54
2021/04/25 23:33:17;;;;;;;72.80;35.90;;;;;;;-1.36;62.58;99848.67;469008;1171;116925;-55
2021/04/25 23:43:21;;;;;;;66.27;33.27;;;;;;;-1.51;62.89;99849.68;469605;1172;116931;-53
2021/04/25 23:53:24;;;;;;;79.05;42.55;;;;;;;-1.54;63.17;99845.44;470276;1171;116102;-55
